VTK503 UHSI-UHPP
Flight info
| Callsign | VTK503 |
|---|---|
| Flight time | N/A |
| Altitude | 19000 |
| Route | 46N150E 4800N15315E 5030N15625E DCT RIMLI B244 RINOT RINOT5N |
| Aircraft | AT75/M-SDFGIRY/S |
Departure
| Time | 2026-04-25 22:48 |
|---|---|
| Airport | Iturup Airport (UHSI) |
Arrival
| Time | N/A |
|---|---|
| Airport | Yelizovo Airport (UHPP) |
| Time | Latitude | Longitude | Altitude | Speed | Heading |
|---|---|---|---|---|---|
| 2026-04-25 22:31 | 45.25924 | 147.95462 | 387 ft | 0 kts | 211° |
| 2026-04-25 22:42 | 45.25916 | 147.95455 | 385 ft | 4 kts | 211° |
| 2026-04-25 22:42 | 45.25901 | 147.95413 | 385 ft | 6 kts | 256° |
| 2026-04-25 22:43 | 45.25879 | 147.95352 | 386 ft | 8 kts | 220° |
| 2026-04-25 22:43 | 45.25833 | 147.95316 | 388 ft | 8 kts | 207° |
| 2026-04-25 22:43 | 45.25781 | 147.95279 | 389 ft | 9 kts | 202° |
| 2026-04-25 22:43 | 45.25731 | 147.95319 | 390 ft | 10 kts | 120° |
| 2026-04-25 22:44 | 45.25694 | 147.95425 | 389 ft | 13 kts | 116° |
| 2026-04-25 22:44 | 45.25651 | 147.95549 | 388 ft | 14 kts | 117° |
| 2026-04-25 22:44 | 45.25603 | 147.95682 | 386 ft | 17 kts | 116° |
| 2026-04-25 22:44 | 45.25548 | 147.95836 | 382 ft | 18 kts | 117° |
| 2026-04-25 22:45 | 45.25493 | 147.95993 | 381 ft | 20 kts | 116° |
| 2026-04-25 22:45 | 45.25428 | 147.96180 | 381 ft | 21 kts | 116° |
| 2026-04-25 22:45 | 45.25362 | 147.96369 | 384 ft | 22 kts | 116° |
| 2026-04-25 22:45 | 45.25292 | 147.96570 | 386 ft | 23 kts | 116° |
| 2026-04-25 22:46 | 45.25221 | 147.96776 | 382 ft | 18 kts | 115° |
| 2026-04-25 22:46 | 45.25181 | 147.96879 | 382 ft | 1 kts | 201° |
| 2026-04-25 22:46 | 45.25181 | 147.96854 | 382 ft | 1 kts | 294° |
| 2026-04-25 22:46 | 45.25198 | 147.96818 | 382 ft | 0 kts | 298° |
| 2026-04-25 22:47 | 45.25205 | 147.96800 | 382 ft | 17 kts | 298° |
| 2026-04-25 22:47 | 45.25365 | 147.96347 | 384 ft | 87 kts | 296° |
| 2026-04-25 22:47 | 45.25724 | 147.95323 | 521 ft | 132 kts | 296° |
| 2026-04-25 22:48 | 45.26095 | 147.94146 | 1303 ft | 127 kts | 291° |
| 2026-04-25 22:48 | 45.26353 | 147.92953 | 2069 ft | 127 kts | 291° |
| 2026-04-25 22:48 | 45.26688 | 147.91816 | 2734 ft | 122 kts | 302° |
| 2026-04-25 22:48 | 45.27267 | 147.91018 | 3476 ft | 118 kts | 333° |
| 2026-04-25 22:49 | 45.28116 | 147.91011 | 4013 ft | 137 kts | 17° |
| 2026-04-25 22:49 | 45.28837 | 147.92052 | 4496 ft | 160 kts | 63° |
| 2026-04-25 22:49 | 45.29010 | 147.93372 | 5036 ft | 170 kts | 80° |
| 2026-04-25 22:52 | 45.29072 | 147.94357 | 5460 ft | 165 kts | 77° |
| 2026-04-25 22:53 | 45.29294 | 147.95952 | 5982 ft | 176 kts | 71° |
| 2026-04-25 22:53 | 45.29608 | 147.97656 | 6582 ft | 176 kts | 65° |
| 2026-04-25 22:53 | 45.29943 | 147.99310 | 7266 ft | 175 kts | 70° |
| 2026-04-25 22:53 | 45.30185 | 148.01023 | 7836 ft | 181 kts | 73° |
| 2026-04-25 22:54 | 45.30437 | 148.02779 | 8398 ft | 184 kts | 70° |
| 2026-04-25 22:54 | 45.30777 | 148.04526 | 8983 ft | 184 kts | 65° |
| 2026-04-25 22:54 | 45.31211 | 148.06230 | 9477 ft | 184 kts | 60° |
| 2026-04-25 22:54 | 45.31729 | 148.07885 | 9886 ft | 184 kts | 56° |
| 2026-04-25 22:55 | 45.32307 | 148.09516 | 10291 ft | 184 kts | 54° |
| 2026-04-25 22:55 | 45.32908 | 148.11127 | 10676 ft | 185 kts | 53° |
| 2026-04-25 22:55 | 45.33507 | 148.12743 | 11076 ft | 185 kts | 54° |
| 2026-04-25 22:55 | 45.34104 | 148.14366 | 11456 ft | 186 kts | 53° |
| 2026-04-25 22:56 | 45.34705 | 148.15992 | 11837 ft | 187 kts | 53° |
| 2026-04-25 22:56 | 45.35303 | 148.17618 | 12225 ft | 188 kts | 53° |
| 2026-04-25 22:56 | 45.35404 | 148.17891 | 12288 ft | 187 kts | 53° |
| 2026-04-25 22:57 | 45.36008 | 148.19542 | 12677 ft | 188 kts | 53° |
| 2026-04-25 22:57 | 45.36609 | 148.21191 | 13059 ft | 189 kts | 53° |
| 2026-04-25 22:57 | 45.37214 | 148.22849 | 13437 ft | 189 kts | 53° |
| 2026-04-25 22:57 | 45.37820 | 148.24501 | 13813 ft | 190 kts | 53° |
| 2026-04-25 22:58 | 45.38434 | 148.26174 | 14164 ft | 190 kts | 53° |
| 2026-04-25 22:58 | 45.39046 | 148.27850 | 14489 ft | 191 kts | 52° |
| 2026-04-25 22:58 | 45.39657 | 148.29524 | 14821 ft | 192 kts | 52° |
| 2026-04-25 22:58 | 45.40257 | 148.31169 | 15128 ft | 192 kts | 52° |
| 2026-04-25 22:59 | 45.40875 | 148.32862 | 15443 ft | 193 kts | 52° |
| 2026-04-25 22:59 | 45.41495 | 148.34567 | 15767 ft | 194 kts | 52° |
| 2026-04-25 22:59 | 45.42065 | 148.36136 | 16077 ft | 194 kts | 52° |
| 2026-04-25 22:59 | 45.42693 | 148.37867 | 16374 ft | 195 kts | 52° |
| 2026-04-25 23:00 | 45.43320 | 148.39585 | 16664 ft | 196 kts | 51° |
| 2026-04-25 23:00 | 45.43958 | 148.41295 | 16963 ft | 196 kts | 51° |
| 2026-04-25 23:00 | 45.44592 | 148.43015 | 17242 ft | 197 kts | 51° |
| 2026-04-25 23:00 | 45.45234 | 148.44745 | 17527 ft | 197 kts | 51° |
| 2026-04-25 23:01 | 45.45878 | 148.46472 | 17829 ft | 198 kts | 51° |
| 2026-04-25 23:01 | 45.46520 | 148.48216 | 18133 ft | 199 kts | 51° |
| 2026-04-25 23:01 | 45.47156 | 148.49962 | 18437 ft | 200 kts | 52° |
| 2026-04-25 23:01 | 45.47797 | 148.51723 | 18681 ft | 200 kts | 52° |
| 2026-04-25 23:02 | 45.48435 | 148.53485 | 18925 ft | 201 kts | 52° |
| 2026-04-25 23:02 | 45.49079 | 148.55261 | 19095 ft | 205 kts | 52° |
| 2026-04-25 23:02 | 45.49746 | 148.57118 | 19141 ft | 215 kts | 53° |
| 2026-04-25 23:02 | 45.50441 | 148.59050 | 19157 ft | 224 kts | 52° |
| 2026-04-25 23:03 | 45.51175 | 148.61068 | 19164 ft | 233 kts | 53° |
| 2026-04-25 23:03 | 45.51928 | 148.63155 | 19177 ft | 240 kts | 53° |
| 2026-04-25 23:03 | 45.52700 | 148.65296 | 19181 ft | 246 kts | 53° |
| 2026-04-25 23:03 | 45.53489 | 148.67485 | 19178 ft | 250 kts | 54° |
| 2026-04-25 23:04 | 45.54291 | 148.69710 | 19178 ft | 254 kts | 54° |
| 2026-04-25 23:04 | 45.55098 | 148.71962 | 19170 ft | 256 kts | 54° |
| 2026-04-25 23:04 | 45.55895 | 148.74184 | 19173 ft | 256 kts | 54° |
| 2026-04-25 23:04 | 45.56723 | 148.76490 | 19174 ft | 258 kts | 54° |
| 2026-04-25 23:05 | 45.57534 | 148.78746 | 19175 ft | 259 kts | 54° |
| 2026-04-25 23:05 | 45.58365 | 148.81067 | 19172 ft | 260 kts | 54° |
| 2026-04-25 23:05 | 45.59177 | 148.83329 | 19172 ft | 260 kts | 54° |
| 2026-04-25 23:05 | 45.60001 | 148.85629 | 19174 ft | 261 kts | 54° |
| 2026-04-25 23:06 | 45.60827 | 148.87954 | 19177 ft | 261 kts | 54° |
| 2026-04-25 23:06 | 45.61577 | 148.90052 | 19173 ft | 261 kts | 54° |
| 2026-04-25 23:06 | 45.62406 | 148.92361 | 19173 ft | 262 kts | 54° |
| 2026-04-25 23:06 | 45.63234 | 148.94681 | 19175 ft | 262 kts | 54° |
| 2026-04-25 23:07 | 45.64064 | 148.97004 | 19172 ft | 263 kts | 54° |
| 2026-04-25 23:07 | 45.64894 | 148.99334 | 19170 ft | 263 kts | 54° |
| 2026-04-25 23:07 | 45.65722 | 149.01664 | 19169 ft | 263 kts | 54° |
| 2026-04-25 23:07 | 45.66551 | 149.03991 | 19175 ft | 264 kts | 54° |
| 2026-04-25 23:08 | 45.67385 | 149.06343 | 19178 ft | 264 kts | 54° |
| 2026-04-25 23:08 | 45.68217 | 149.08685 | 19168 ft | 264 kts | 54° |
| 2026-04-25 23:08 | 45.69047 | 149.11029 | 19174 ft | 265 kts | 54° |
| 2026-04-25 23:08 | 45.69882 | 149.13381 | 19178 ft | 265 kts | 54° |
| 2026-04-25 23:09 | 45.70706 | 149.15707 | 19181 ft | 265 kts | 54° |
| 2026-04-25 23:09 | 45.71552 | 149.18099 | 19173 ft | 266 kts | 54° |
| 2026-04-25 23:09 | 45.72381 | 149.20454 | 19176 ft | 265 kts | 54° |
| 2026-04-25 23:09 | 45.73202 | 149.22784 | 19183 ft | 264 kts | 54° |
| 2026-04-25 23:10 | 45.74035 | 149.25131 | 19179 ft | 265 kts | 54° |
| 2026-04-25 23:10 | 45.74865 | 149.27488 | 19175 ft | 266 kts | 54° |
| 2026-04-25 23:10 | 45.75709 | 149.29882 | 19184 ft | 266 kts | 54° |
| 2026-04-25 23:10 | 45.76532 | 149.32218 | 19182 ft | 267 kts | 54° |
| 2026-04-25 23:11 | 45.77365 | 149.34585 | 19184 ft | 267 kts | 54° |
| 2026-04-25 23:11 | 45.78200 | 149.36964 | 19179 ft | 267 kts | 54° |
| 2026-04-25 23:11 | 45.79036 | 149.39344 | 19180 ft | 267 kts | 54° |
| 2026-04-25 23:11 | 45.79872 | 149.41730 | 19182 ft | 268 kts | 54° |
| 2026-04-25 23:12 | 45.80707 | 149.44113 | 19183 ft | 268 kts | 54° |
| 2026-04-25 23:12 | 45.81544 | 149.46504 | 19183 ft | 268 kts | 54° |
| 2026-04-25 23:12 | 45.82382 | 149.48899 | 19184 ft | 268 kts | 54° |
| 2026-04-25 23:12 | 45.83215 | 149.51281 | 19185 ft | 268 kts | 54° |
| 2026-04-25 23:13 | 45.84055 | 149.53688 | 19190 ft | 269 kts | 54° |
| 2026-04-25 23:13 | 45.84892 | 149.56087 | 19180 ft | 269 kts | 54° |
| 2026-04-25 23:13 | 45.85730 | 149.58486 | 19180 ft | 269 kts | 54° |
| 2026-04-25 23:13 | 45.86566 | 149.60896 | 19185 ft | 270 kts | 54° |
| 2026-04-25 23:14 | 45.87405 | 149.63305 | 19185 ft | 270 kts | 54° |
| 2026-04-25 23:14 | 45.88240 | 149.65708 | 19186 ft | 270 kts | 54° |
| 2026-04-25 23:14 | 45.89067 | 149.68088 | 19340 ft | 264 kts | 54° |
| 2026-04-25 23:14 | 45.89883 | 149.70441 | 19488 ft | 260 kts | 53° |
| 2026-04-25 23:15 | 45.90680 | 149.72739 | 19638 ft | 256 kts | 53° |
| 2026-04-25 23:15 | 45.91466 | 149.75011 | 19795 ft | 253 kts | 53° |
| 2026-04-25 23:15 | 45.92248 | 149.77263 | 19937 ft | 252 kts | 53° |
| 2026-04-25 23:15 | 45.93029 | 149.79520 | 20089 ft | 251 kts | 53° |
| 2026-04-25 23:16 | 45.93801 | 149.81755 | 20244 ft | 250 kts | 53° |
| 2026-04-25 23:16 | 45.94571 | 149.83992 | 20393 ft | 249 kts | 53° |
| 2026-04-25 23:16 | 45.95338 | 149.86216 | 20551 ft | 248 kts | 53° |
| 2026-04-25 23:16 | 45.96102 | 149.88431 | 20714 ft | 247 kts | 53° |
| 2026-04-25 23:17 | 45.96862 | 149.90639 | 20879 ft | 247 kts | 52° |
| 2026-04-25 23:17 | 45.97622 | 149.92848 | 21035 ft | 247 kts | 52° |
| 2026-04-25 23:17 | 45.98390 | 149.95080 | 21112 ft | 250 kts | 53° |
| 2026-04-25 23:17 | 45.99161 | 149.97333 | 21153 ft | 253 kts | 52° |
| 2026-04-25 23:18 | 45.99941 | 149.99556 | 21178 ft | 255 kts | 50° |
| 2026-04-25 23:18 | 46.00934 | 150.01598 | 21174 ft | 248 kts | 38° |
| 2026-04-25 23:18 | 46.02109 | 150.03426 | 21175 ft | 246 kts | 34° |
| 2026-04-25 23:18 | 46.03315 | 150.05155 | 21182 ft | 247 kts | 33° |
| 2026-04-25 23:19 | 46.04542 | 150.06915 | 21194 ft | 250 kts | 34° |
| 2026-04-25 23:19 | 46.05745 | 150.08717 | 21185 ft | 252 kts | 35° |
| 2026-04-25 23:19 | 46.06956 | 150.10580 | 21191 ft | 255 kts | 36° |
| 2026-04-25 23:19 | 46.08174 | 150.12448 | 21196 ft | 257 kts | 36° |
| 2026-04-25 23:20 | 46.09405 | 150.14348 | 21189 ft | 259 kts | 36° |
| 2026-04-25 23:20 | 46.10648 | 150.16259 | 21177 ft | 259 kts | 36° |
| 2026-04-25 23:20 | 46.11867 | 150.18141 | 21189 ft | 259 kts | 36° |
| 2026-04-25 23:20 | 46.13097 | 150.20034 | 21183 ft | 260 kts | 35° |
| 2026-04-25 23:21 | 46.14329 | 150.21938 | 21188 ft | 259 kts | 36° |
| 2026-04-25 23:21 | 46.15555 | 150.23829 | 21192 ft | 259 kts | 35° |
| 2026-04-25 23:21 | 46.16787 | 150.25726 | 21202 ft | 260 kts | 36° |
| 2026-04-25 23:21 | 46.18048 | 150.27676 | 21183 ft | 261 kts | 35° |
| 2026-04-25 23:22 | 46.19275 | 150.29575 | 21194 ft | 262 kts | 35° |
| 2026-04-25 23:22 | 46.20517 | 150.31493 | 21185 ft | 262 kts | 35° |
| 2026-04-25 23:22 | 46.21760 | 150.33422 | 21189 ft | 262 kts | 35° |
| 2026-04-25 23:23 | 46.24247 | 150.37268 | 21186 ft | 262 kts | 35° |
| 2026-04-25 23:23 | 46.25479 | 150.39181 | 21187 ft | 262 kts | 35° |
| 2026-04-25 23:23 | 46.25947 | 150.39905 | 21188 ft | 262 kts | 35° |
| 2026-04-25 23:23 | 46.27189 | 150.41833 | 21195 ft | 262 kts | 35° |
| 2026-04-25 23:24 | 46.28429 | 150.43761 | 21195 ft | 262 kts | 35° |
| 2026-04-25 23:24 | 46.29669 | 150.45692 | 21189 ft | 262 kts | 35° |
| 2026-04-25 23:24 | 46.30906 | 150.47617 | 21195 ft | 262 kts | 35° |
| 2026-04-25 23:24 | 46.32154 | 150.49563 | 21193 ft | 262 kts | 35° |
| 2026-04-25 23:25 | 46.33384 | 150.51480 | 21193 ft | 262 kts | 35° |
| 2026-04-25 23:25 | 46.34636 | 150.53432 | 21187 ft | 262 kts | 34° |
| 2026-04-25 23:25 | 46.35873 | 150.55361 | 21193 ft | 262 kts | 34° |
| 2026-04-25 23:25 | 46.37111 | 150.57297 | 21194 ft | 263 kts | 35° |
| 2026-04-25 23:26 | 46.38343 | 150.59223 | 21196 ft | 263 kts | 34° |
| 2026-04-25 23:26 | 46.39589 | 150.61178 | 21295 ft | 259 kts | 34° |
| 2026-04-25 23:26 | 46.40794 | 150.63077 | 21428 ft | 255 kts | 34° |
| 2026-04-25 23:26 | 46.41991 | 150.64955 | 21563 ft | 251 kts | 34° |
| 2026-04-25 23:27 | 46.43161 | 150.66786 | 21695 ft | 248 kts | 33° |
| 2026-04-25 23:27 | 46.44345 | 150.68635 | 21827 ft | 246 kts | 33° |
| 2026-04-25 23:27 | 46.45494 | 150.70441 | 21963 ft | 244 kts | 33° |
| 2026-04-25 23:27 | 46.46641 | 150.72242 | 22100 ft | 242 kts | 33° |
| 2026-04-25 23:28 | 46.47789 | 150.74041 | 22239 ft | 241 kts | 33° |
| 2026-04-25 23:28 | 46.48897 | 150.75783 | 22367 ft | 241 kts | 33° |
| 2026-04-25 23:28 | 46.50046 | 150.77598 | 22510 ft | 240 kts | 32° |
| 2026-04-25 23:28 | 46.51186 | 150.79392 | 22652 ft | 240 kts | 32° |
| 2026-04-25 23:29 | 46.52316 | 150.81171 | 22789 ft | 240 kts | 32° |
| 2026-04-25 23:29 | 46.53433 | 150.82934 | 22923 ft | 240 kts | 32° |
| 2026-04-25 23:29 | 46.54559 | 150.84715 | 23066 ft | 239 kts | 32° |
| 2026-04-25 23:29 | 46.55707 | 150.86521 | 23145 ft | 242 kts | 32° |
| 2026-04-25 23:30 | 46.56851 | 150.88329 | 23174 ft | 245 kts | 32° |
| 2026-04-25 23:30 | 46.58017 | 150.90173 | 23180 ft | 249 kts | 32° |
| 2026-04-25 23:30 | 46.59181 | 150.92012 | 23191 ft | 252 kts | 32° |
| 2026-04-25 23:30 | 46.60387 | 150.93926 | 23193 ft | 255 kts | 33° |
| 2026-04-25 23:31 | 46.61589 | 150.95825 | 23198 ft | 257 kts | 33° |
| 2026-04-25 23:31 | 46.62794 | 150.97742 | 23194 ft | 259 kts | 33° |
| 2026-04-25 23:31 | 46.64012 | 150.99674 | 23193 ft | 260 kts | 33° |
| 2026-04-25 23:31 | 46.65238 | 151.01617 | 23199 ft | 262 kts | 33° |
| 2026-04-25 23:32 | 46.66470 | 151.03579 | 23199 ft | 263 kts | 33° |
| 2026-04-25 23:32 | 46.67708 | 151.05547 | 23192 ft | 264 kts | 33° |
| 2026-04-25 23:32 | 46.68934 | 151.07504 | 23193 ft | 265 kts | 33° |
| 2026-04-25 23:32 | 46.70191 | 151.09502 | 23196 ft | 265 kts | 33° |
| 2026-04-25 23:33 | 46.71437 | 151.11485 | 23197 ft | 266 kts | 33° |
| 2026-04-25 23:33 | 46.72688 | 151.13486 | 23192 ft | 266 kts | 33° |
| 2026-04-25 23:33 | 46.73933 | 151.15478 | 23197 ft | 267 kts | 33° |
| 2026-04-25 23:33 | 46.75189 | 151.17481 | 23198 ft | 267 kts | 33° |
| 2026-04-25 23:34 | 46.76448 | 151.19489 | 23199 ft | 268 kts | 33° |
| 2026-04-25 23:34 | 46.77702 | 151.21496 | 23192 ft | 268 kts | 33° |
| 2026-04-25 23:34 | 46.78952 | 151.23498 | 23196 ft | 268 kts | 32° |
| 2026-04-25 23:34 | 46.80208 | 151.25506 | 23200 ft | 269 kts | 33° |
| 2026-04-25 23:35 | 46.81473 | 151.27536 | 23201 ft | 269 kts | 33° |
| 2026-04-25 23:35 | 46.82729 | 151.29554 | 23185 ft | 270 kts | 33° |
| 2026-04-25 23:35 | 46.83991 | 151.31584 | 23195 ft | 270 kts | 32° |
| 2026-04-25 23:35 | 46.85239 | 151.33585 | 23186 ft | 270 kts | 33° |
| 2026-04-25 23:36 | 46.86523 | 151.35653 | 23198 ft | 270 kts | 32° |
| 2026-04-25 23:36 | 46.87352 | 151.36986 | 23193 ft | 270 kts | 32° |
| 2026-04-25 23:36 | 46.89052 | 151.39719 | 23191 ft | 270 kts | 32° |
| 2026-04-25 23:36 | 46.90291 | 151.41721 | 23190 ft | 270 kts | 32° |
| 2026-04-25 23:37 | 46.91560 | 151.43769 | 23190 ft | 270 kts | 32° |
| 2026-04-25 23:37 | 46.92836 | 151.45827 | 23189 ft | 271 kts | 32° |
| 2026-04-25 23:37 | 46.94081 | 151.47842 | 23189 ft | 271 kts | 32° |
| 2026-04-25 23:37 | 46.95363 | 151.49913 | 23197 ft | 271 kts | 32° |
| 2026-04-25 23:38 | 46.96611 | 151.51931 | 23198 ft | 271 kts | 32° |
| 2026-04-25 23:38 | 46.97876 | 151.53984 | 23194 ft | 271 kts | 32° |
| 2026-04-25 23:38 | 46.99127 | 151.56020 | 23187 ft | 271 kts | 32° |
| 2026-04-25 23:38 | 47.00393 | 151.58068 | 23198 ft | 271 kts | 32° |
| 2026-04-25 23:39 | 47.01654 | 151.60112 | 23202 ft | 271 kts | 32° |
| 2026-04-25 23:39 | 47.02919 | 151.62167 | 23193 ft | 271 kts | 32° |
| 2026-04-25 23:39 | 47.03779 | 151.63565 | 23197 ft | 271 kts | 32° |
| 2026-04-25 23:39 | 47.05454 | 151.66288 | 23194 ft | 272 kts | 32° |
| 2026-04-25 23:40 | 47.06310 | 151.67682 | 23192 ft | 272 kts | 32° |
| 2026-04-25 23:40 | 47.07991 | 151.70420 | 23189 ft | 272 kts | 32° |
| 2026-04-25 23:40 | 47.09254 | 151.72485 | 23186 ft | 272 kts | 31° |
| 2026-04-25 23:40 | 47.10095 | 151.73852 | 23187 ft | 272 kts | 31° |
| 2026-04-25 23:41 | 47.11361 | 151.75919 | 23191 ft | 273 kts | 32° |
| 2026-04-25 23:41 | 47.12624 | 151.77981 | 23194 ft | 273 kts | 31° |
| 2026-04-25 23:41 | 47.13896 | 151.80065 | 23194 ft | 273 kts | 31° |
| 2026-04-25 23:41 | 47.15168 | 151.82144 | 23195 ft | 273 kts | 31° |
| 2026-04-25 23:42 | 47.16439 | 151.84226 | 23186 ft | 273 kts | 31° |
| 2026-04-25 23:42 | 47.17709 | 151.86304 | 23185 ft | 273 kts | 31° |
| 2026-04-25 23:42 | 47.18794 | 151.88089 | 23190 ft | 274 kts | 31° |
| 2026-04-25 23:43 | 47.19844 | 151.89815 | 23192 ft | 274 kts | 31° |
| 2026-04-25 23:43 | 47.21107 | 151.91884 | 23189 ft | 274 kts | 31° |
| 2026-04-25 23:44 | 47.22378 | 151.93967 | 23195 ft | 274 kts | 31° |
| 2026-04-25 23:44 | 47.23660 | 151.96084 | 23176 ft | 275 kts | 31° |
| 2026-04-25 23:44 | 47.24936 | 151.98183 | 23182 ft | 275 kts | 31° |
| 2026-04-25 23:44 | 47.26204 | 152.00264 | 23182 ft | 275 kts | 31° |
| 2026-04-25 23:45 | 47.27474 | 152.02357 | 23186 ft | 275 kts | 31° |
| 2026-04-25 23:45 | 47.28756 | 152.04469 | 23180 ft | 276 kts | 31° |
| 2026-04-25 23:45 | 47.30028 | 152.06579 | 23185 ft | 276 kts | 31° |
| 2026-04-25 23:45 | 47.31312 | 152.08695 | 23188 ft | 276 kts | 31° |
| 2026-04-25 23:46 | 47.32580 | 152.10792 | 23193 ft | 277 kts | 31° |
| 2026-04-25 23:46 | 47.33864 | 152.12919 | 23185 ft | 277 kts | 31° |
| 2026-04-25 23:46 | 47.35151 | 152.15047 | 23193 ft | 277 kts | 31° |
| 2026-04-25 23:46 | 47.36446 | 152.17195 | 23190 ft | 278 kts | 31° |
| 2026-04-25 23:47 | 47.37726 | 152.19319 | 23188 ft | 278 kts | 31° |
| 2026-04-25 23:47 | 47.39001 | 152.21433 | 23182 ft | 278 kts | 31° |
| 2026-04-25 23:47 | 47.40295 | 152.23585 | 23187 ft | 279 kts | 31° |
| 2026-04-25 23:47 | 47.41581 | 152.25722 | 23191 ft | 279 kts | 31° |
| 2026-04-25 23:48 | 47.42886 | 152.27889 | 23188 ft | 279 kts | 31° |
| 2026-04-25 23:48 | 47.44157 | 152.30008 | 23180 ft | 280 kts | 31° |
| 2026-04-25 23:48 | 47.45448 | 152.32168 | 23179 ft | 280 kts | 31° |
| 2026-04-25 23:48 | 47.46742 | 152.34319 | 23184 ft | 280 kts | 31° |
| 2026-04-25 23:49 | 47.48034 | 152.36479 | 23182 ft | 281 kts | 31° |
| 2026-04-25 23:49 | 47.49324 | 152.38630 | 23173 ft | 281 kts | 31° |
| 2026-04-25 23:49 | 47.50621 | 152.40806 | 23181 ft | 281 kts | 31° |
| 2026-04-25 23:49 | 47.51920 | 152.42974 | 23185 ft | 282 kts | 31° |
| 2026-04-25 23:50 | 47.53225 | 152.45155 | 23183 ft | 282 kts | 31° |
| 2026-04-25 23:50 | 47.54522 | 152.47337 | 23177 ft | 283 kts | 31° |
| 2026-04-25 23:50 | 47.55823 | 152.49518 | 23177 ft | 283 kts | 31° |
| 2026-04-25 23:50 | 47.57120 | 152.51689 | 23177 ft | 283 kts | 31° |
| 2026-04-25 23:51 | 47.58427 | 152.53894 | 23176 ft | 284 kts | 31° |
| 2026-04-25 23:51 | 47.59717 | 152.56061 | 23173 ft | 284 kts | 31° |
| 2026-04-25 23:51 | 47.61029 | 152.58269 | 23175 ft | 284 kts | 31° |
| 2026-04-25 23:51 | 47.62347 | 152.60483 | 23180 ft | 284 kts | 31° |
| 2026-04-25 23:52 | 47.63639 | 152.62665 | 23181 ft | 285 kts | 31° |
| 2026-04-25 23:52 | 47.64955 | 152.64883 | 23172 ft | 285 kts | 31° |
| 2026-04-25 23:52 | 47.66263 | 152.67088 | 23180 ft | 285 kts | 31° |
| 2026-04-25 23:52 | 47.67567 | 152.69293 | 23176 ft | 286 kts | 31° |
| 2026-04-25 23:53 | 47.68867 | 152.71491 | 23179 ft | 286 kts | 31° |
| 2026-04-25 23:53 | 47.70195 | 152.73744 | 23178 ft | 287 kts | 31° |
| 2026-04-25 23:53 | 47.71508 | 152.75974 | 23180 ft | 288 kts | 31° |
| 2026-04-25 23:53 | 47.72839 | 152.78223 | 23170 ft | 289 kts | 32° |
| 2026-04-25 23:54 | 47.74166 | 152.80475 | 23168 ft | 289 kts | 32° |
| 2026-04-25 23:54 | 47.75469 | 152.82689 | 23164 ft | 289 kts | 31° |
| 2026-04-25 23:54 | 47.76789 | 152.84933 | 23177 ft | 289 kts | 31° |
| 2026-04-25 23:54 | 47.78111 | 152.87182 | 23180 ft | 290 kts | 32° |
| 2026-04-25 23:55 | 47.79453 | 152.89468 | 23191 ft | 291 kts | 31° |
| 2026-04-25 23:55 | 47.80758 | 152.91694 | 23176 ft | 293 kts | 32° |
| 2026-04-25 23:55 | 47.82112 | 152.94011 | 23174 ft | 294 kts | 32° |
| 2026-04-25 23:55 | 47.83460 | 152.96308 | 23169 ft | 295 kts | 32° |
| 2026-04-25 23:56 | 47.84797 | 152.98592 | 23160 ft | 295 kts | 32° |
| 2026-04-25 23:56 | 47.86138 | 153.00887 | 23154 ft | 294 kts | 32° |
| 2026-04-25 23:56 | 47.87473 | 153.03177 | 23163 ft | 293 kts | 32° |
| 2026-04-25 23:56 | 47.88816 | 153.05474 | 23168 ft | 293 kts | 32° |
| 2026-04-25 23:57 | 47.90156 | 153.07775 | 23170 ft | 293 kts | 32° |
| 2026-04-25 23:57 | 47.91492 | 153.10067 | 23167 ft | 292 kts | 32° |
| 2026-04-25 23:57 | 47.92818 | 153.12343 | 23173 ft | 292 kts | 32° |
| 2026-04-25 23:57 | 47.94156 | 153.14643 | 23172 ft | 292 kts | 32° |
| 2026-04-25 23:58 | 47.95482 | 153.16925 | 23171 ft | 292 kts | 32° |
| 2026-04-25 23:58 | 47.96815 | 153.19231 | 23170 ft | 292 kts | 33° |
| 2026-04-25 23:58 | 47.98143 | 153.21535 | 23184 ft | 293 kts | 33° |
| 2026-04-25 23:58 | 47.99476 | 153.23828 | 23172 ft | 294 kts | 33° |
| 2026-04-25 23:59 | 48.00884 | 153.25972 | 23165 ft | 284 kts | 26° |
| 2026-04-25 23:59 | 48.02356 | 153.27859 | 23163 ft | 277 kts | 21° |
| 2026-04-25 23:59 | 48.03884 | 153.29626 | 23168 ft | 274 kts | 20° |
| 2026-04-25 23:59 | 48.05402 | 153.31342 | 23170 ft | 274 kts | 20° |
| 2026-04-26 00:00 | 48.06920 | 153.33074 | 23173 ft | 275 kts | 21° |
| 2026-04-26 00:00 | 48.08409 | 153.34831 | 23167 ft | 277 kts | 22° |
| 2026-04-26 00:00 | 48.09938 | 153.36652 | 23168 ft | 276 kts | 22° |
| 2026-04-26 00:00 | 48.11431 | 153.38417 | 23167 ft | 277 kts | 22° |
| 2026-04-26 00:01 | 48.12951 | 153.40225 | 23168 ft | 277 kts | 22° |
| 2026-04-26 00:01 | 48.14456 | 153.42017 | 23164 ft | 277 kts | 22° |
| 2026-04-26 00:01 | 48.15948 | 153.43795 | 23154 ft | 277 kts | 23° |
| 2026-04-26 00:01 | 48.17450 | 153.45590 | 23154 ft | 277 kts | 23° |
| 2026-04-26 00:02 | 48.18970 | 153.47428 | 23167 ft | 278 kts | 23° |
| 2026-04-26 00:02 | 48.19519 | 153.48093 | 23166 ft | 278 kts | 24° |
| 2026-04-26 00:02 | 48.20926 | 153.49796 | 23170 ft | 278 kts | 24° |
| 2026-04-26 00:02 | 48.22436 | 153.51610 | 23171 ft | 278 kts | 24° |
| 2026-04-26 00:03 | 48.23954 | 153.53426 | 23166 ft | 278 kts | 24° |